sensor_id;sensor_type;location;lat;lon;timestamp;P1;durP1;ratioP1;P2;durP2;ratioP2
57463;SDS011;43309;44.418;26.122;2022-08-19T00:01:43;12.50;;;9.80;;
57463;SDS011;43309;44.418;26.122;2022-08-19T00:04:12;10.30;;;8.80;;
57463;SDS011;43309;44.418;26.122;2022-08-19T00:06:42;12.00;;;9.00;;
57463;SDS011;43309;44.418;26.122;2022-08-19T00:09:12;14.10;;;9.30;;
57463;SDS011;43309;44.418;26.122;2022-08-19T00:11:41;12.10;;;9.30;;
57463;SDS011;43309;44.418;26.122;2022-08-19T00:14:11;9.90;;;8.90;;
57463;SDS011;43309;44.418;26.122;2022-08-19T00:16:39;13.20;;;8.70;;
57463;SDS011;43309;44.418;26.122;2022-08-19T00:19:08;12.10;;;8.60;;
57463;SDS011;43309;44.418;26.122;2022-08-19T00:21:36;11.50;;;8.60;;
57463;SDS011;43309;44.418;26.122;2022-08-19T00:24:07;14.60;;;8.90;;
57463;SDS011;43309;44.418;26.122;2022-08-19T00:26:35;11.30;;;9.30;;
57463;SDS011;43309;44.418;26.122;2022-08-19T00:29:03;11.10;;;9.40;;
57463;SDS011;43309;44.418;26.122;2022-08-19T00:31:31;13.80;;;10.40;;
57463;SDS011;43309;44.418;26.122;2022-08-19T00:33:59;9.90;;;8.90;;
57463;SDS011;43309;44.418;26.122;2022-08-19T00:36:26;13.00;;;9.30;;
57463;SDS011;43309;44.418;26.122;2022-08-19T00:38:55;11.30;;;9.30;;
57463;SDS011;43309;44.418;26.122;2022-08-19T00:41:23;10.60;;;9.40;;
57463;SDS011;43309;44.418;26.122;2022-08-19T00:44:02;12.80;;;9.60;;
57463;SDS011;43309;44.418;26.122;2022-08-19T00:46:32;15.90;;;9.40;;
57463;SDS011;43309;44.418;26.122;2022-08-19T00:49:04;12.10;;;8.90;;
57463;SDS011;43309;44.418;26.122;2022-08-19T00:51:35;10.50;;;8.80;;
57463;SDS011;43309;44.418;26.122;2022-08-19T00:54:03;15.10;;;9.50;;
57463;SDS011;43309;44.418;26.122;2022-08-19T00:56:30;16.90;;;9.20;;
57463;SDS011;43309;44.418;26.122;2022-08-19T00:58:58;13.20;;;8.60;;
57463;SDS011;43309;44.418;26.122;2022-08-19T01:01:25;14.00;;;8.80;;
57463;SDS011;43309;44.418;26.122;2022-08-19T01:03:52;13.00;;;9.00;;
57463;SDS011;43309;44.418;26.122;2022-08-19T01:06:20;11.70;;;9.40;;
57463;SDS011;43309;44.418;26.122;2022-08-19T01:08:47;12.10;;;9.20;;
57463;SDS011;43309;44.418;26.122;2022-08-19T01:11:14;12.20;;;9.10;;
57463;SDS011;43309;44.418;26.122;2022-08-19T01:13:41;9.90;;;8.80;;
57463;SDS011;43309;44.418;26.122;2022-08-19T01:16:09;11.50;;;9.80;;
57463;SDS011;43309;44.418;26.122;2022-08-19T01:18:38;13.40;;;9.30;;
57463;SDS011;43309;44.418;26.122;2022-08-19T01:21:09;13.10;;;9.40;;
57463;SDS011;43309;44.418;26.122;2022-08-19T01:23:43;11.80;;;9.00;;
57463;SDS011;43309;44.418;26.122;2022-08-19T01:26:16;11.90;;;9.40;;
57463;SDS011;43309;44.418;26.122;2022-08-19T01:28:47;13.80;;;10.60;;
57463;SDS011;43309;44.418;26.122;2022-08-19T01:31:18;12.30;;;10.00;;
57463;SDS011;43309;44.418;26.122;2022-08-19T01:33:49;13.40;;;9.20;;
57463;SDS011;43309;44.418;26.122;2022-08-19T01:36:22;11.30;;;8.90;;
57463;SDS011;43309;44.418;26.122;2022-08-19T01:38:53;12.40;;;9.50;;
57463;SDS011;43309;44.418;26.122;2022-08-19T01:41:20;14.80;;;10.10;;
57463;SDS011;43309;44.418;26.122;2022-08-19T01:43:50;11.80;;;9.10;;
57463;SDS011;43309;44.418;26.122;2022-08-19T01:46:19;12.40;;;9.70;;
57463;SDS011;43309;44.418;26.122;2022-08-19T01:48:46;12.70;;;9.50;;
57463;SDS011;43309;44.418;26.122;2022-08-19T01:51:13;16.20;;;9.80;;
57463;SDS011;43309;44.418;26.122;2022-08-19T01:53:41;10.40;;;9.00;;
57463;SDS011;43309;44.418;26.122;2022-08-19T01:56:08;14.20;;;9.80;;
57463;SDS011;43309;44.418;26.122;2022-08-19T01:58:36;10.00;;;9.00;;
57463;SDS011;43309;44.418;26.122;2022-08-19T02:01:06;10.60;;;8.70;;
57463;SDS011;43309;44.418;26.122;2022-08-19T02:03:34;10.30;;;8.50;;
57463;SDS011;43309;44.418;26.122;2022-08-19T02:06:03;11.20;;;9.90;;
57463;SDS011;43309;44.418;26.122;2022-08-19T02:08:33;14.20;;;9.30;;
57463;SDS011;43309;44.418;26.122;2022-08-19T02:11:03;12.00;;;10.20;;
57463;SDS011;43309;44.418;26.122;2022-08-19T02:13:31;14.40;;;9.50;;
57463;SDS011;43309;44.418;26.122;2022-08-19T02:15:58;10.20;;;9.10;;
57463;SDS011;43309;44.418;26.122;2022-08-19T02:18:26;11.90;;;9.40;;
57463;SDS011;43309;44.418;26.122;2022-08-19T02:20:53;12.90;;;9.60;;
57463;SDS011;43309;44.418;26.122;2022-08-19T02:23:20;15.20;;;10.40;;
57463;SDS011;43309;44.418;26.122;2022-08-19T02:25:47;15.80;;;10.40;;
57463;SDS011;43309;44.418;26.122;2022-08-19T02:28:15;14.60;;;9.10;;
57463;SDS011;43309;44.418;26.122;2022-08-19T02:30:42;11.30;;;9.20;;
57463;SDS011;43309;44.418;26.122;2022-08-19T02:33:09;11.90;;;8.80;;
57463;SDS011;43309;44.418;26.122;2022-08-19T02:35:36;10.30;;;9.20;;
57463;SDS011;43309;44.418;26.122;2022-08-19T02:38:03;11.20;;;8.90;;
57463;SDS011;43309;44.418;26.122;2022-08-19T02:40:50;16.70;;;10.10;;
57463;SDS011;43309;44.418;26.122;2022-08-19T02:43:19;10.10;;;9.00;;
57463;SDS011;43309;44.418;26.122;2022-08-19T02:45:47;14.90;;;9.90;;
57463;SDS011;43309;44.418;26.122;2022-08-19T02:48:16;13.50;;;9.90;;
57463;SDS011;43309;44.418;26.122;2022-08-19T02:50:45;12.60;;;9.30;;
57463;SDS011;43309;44.418;26.122;2022-08-19T02:53:13;11.60;;;8.70;;
57463;SDS011;43309;44.418;26.122;2022-08-19T02:55:44;12.70;;;9.80;;
57463;SDS011;43309;44.418;26.122;2022-08-19T02:58:13;15.30;;;10.30;;
57463;SDS011;43309;44.418;26.122;2022-08-19T03:00:45;12.60;;;10.40;;
57463;SDS011;43309;44.418;26.122;2022-08-19T03:03:13;13.80;;;9.60;;
57463;SDS011;43309;44.418;26.122;2022-08-19T03:05:41;15.30;;;10.20;;
57463;SDS011;43309;44.418;26.122;2022-08-19T03:08:09;15.00;;;10.00;;
57463;SDS011;43309;44.418;26.122;2022-08-19T03:10:39;14.40;;;10.20;;
57463;SDS011;43309;44.418;26.122;2022-08-19T03:13:12;14.80;;;9.30;;
57463;SDS011;43309;44.418;26.122;2022-08-19T03:15:42;14.10;;;10.50;;
57463;SDS011;43309;44.418;26.122;2022-08-19T03:18:11;16.10;;;10.20;;
57463;SDS011;43309;44.418;26.122;2022-08-19T03:20:47;16.00;;;10.00;;
57463;SDS011;43309;44.418;26.122;2022-08-19T03:23:16;15.30;;;9.60;;
57463;SDS011;43309;44.418;26.122;2022-08-19T03:25:45;14.40;;;10.20;;
57463;SDS011;43309;44.418;26.122;2022-08-19T03:28:13;11.90;;;9.60;;
57463;SDS011;43309;44.418;26.122;2022-08-19T03:30:42;12.00;;;9.20;;
57463;SDS011;43309;44.418;26.122;2022-08-19T03:33:10;11.40;;;8.90;;
57463;SDS011;43309;44.418;26.122;2022-08-19T03:35:40;11.00;;;8.80;;
57463;SDS011;43309;44.418;26.122;2022-08-19T03:38:07;14.90;;;10.00;;
57463;SDS011;43309;44.418;26.122;2022-08-19T03:40:36;11.30;;;9.90;;
57463;SDS011;43309;44.418;26.122;2022-08-19T03:43:03;13.10;;;9.60;;
57463;SDS011;43309;44.418;26.122;2022-08-19T03:45:30;14.70;;;9.90;;
57463;SDS011;43309;44.418;26.122;2022-08-19T03:47:57;19.10;;;10.10;;
57463;SDS011;43309;44.418;26.122;2022-08-19T03:50:24;13.80;;;10.20;;
57463;SDS011;43309;44.418;26.122;2022-08-19T03:52:52;16.70;;;10.80;;
57463;SDS011;43309;44.418;26.122;2022-08-19T03:55:19;13.20;;;10.40;;
57463;SDS011;43309;44.418;26.122;2022-08-19T03:57:46;15.50;;;10.20;;
57463;SDS011;43309;44.418;26.122;2022-08-19T04:00:15;13.40;;;10.10;;
57463;SDS011;43309;44.418;26.122;2022-08-19T04:02:43;20.90;;;12.80;;
57463;SDS011;43309;44.418;26.122;2022-08-19T04:05:10;11.80;;;9.50;;
57463;SDS011;43309;44.418;26.122;2022-08-19T04:07:37;13.10;;;10.90;;
57463;SDS011;43309;44.418;26.122;2022-08-19T04:10:04;16.50;;;11.30;;
57463;SDS011;43309;44.418;26.122;2022-08-19T04:12:32;11.30;;;9.30;;
57463;SDS011;43309;44.418;26.122;2022-08-19T04:14:59;12.60;;;9.50;;
57463;SDS011;43309;44.418;26.122;2022-08-19T04:17:26;16.20;;;10.30;;
57463;SDS011;43309;44.418;26.122;2022-08-19T04:19:53;12.60;;;9.70;;
57463;SDS011;43309;44.418;26.122;2022-08-19T04:22:20;11.90;;;9.50;;
57463;SDS011;43309;44.418;26.122;2022-08-19T04:24:47;13.20;;;8.70;;
57463;SDS011;43309;44.418;26.122;2022-08-19T04:27:14;12.90;;;9.40;;
57463;SDS011;43309;44.418;26.122;2022-08-19T04:29:43;14.00;;;9.30;;
57463;SDS011;43309;44.418;26.122;2022-08-19T04:32:10;13.20;;;9.50;;
57463;SDS011;43309;44.418;26.122;2022-08-19T04:34:37;12.30;;;9.30;;
57463;SDS011;43309;44.418;26.122;2022-08-19T04:37:05;12.80;;;9.40;;
57463;SDS011;43309;44.418;26.122;2022-08-19T04:39:38;12.50;;;9.10;;
57463;SDS011;43309;44.418;26.122;2022-08-19T04:42:24;14.00;;;8.50;;
57463;SDS011;43309;44.418;26.122;2022-08-19T04:45:09;13.50;;;9.40;;
57463;SDS011;43309;44.418;26.122;2022-08-19T04:47:41;11.30;;;8.60;;
57463;SDS011;43309;44.418;26.122;2022-08-19T04:50:09;12.60;;;8.90;;
57463;SDS011;43309;44.418;26.122;2022-08-19T04:52:38;11.20;;;8.60;;
57463;SDS011;43309;44.418;26.122;2022-08-19T04:57:37;13.90;;;8.20;;
57463;SDS011;43309;44.418;26.122;2022-08-19T05:00:10;11.60;;;7.80;;
57463;SDS011;43309;44.418;26.122;2022-08-19T05:05:05;13.60;;;9.00;;
57463;SDS011;43309;44.418;26.122;2022-08-19T05:07:33;12.40;;;8.30;;
57463;SDS011;43309;44.418;26.122;2022-08-19T05:10:01;11.50;;;9.10;;
57463;SDS011;43309;44.418;26.122;2022-08-19T05:12:29;12.70;;;8.60;;
57463;SDS011;43309;44.418;26.122;2022-08-19T05:14:57;9.60;;;8.30;;
57463;SDS011;43309;44.418;26.122;2022-08-19T05:17:25;10.20;;;8.10;;
57463;SDS011;43309;44.418;26.122;2022-08-19T05:19:54;11.50;;;8.60;;
57463;SDS011;43309;44.418;26.122;2022-08-19T05:22:41;10.90;;;8.90;;
57463;SDS011;43309;44.418;26.122;2022-08-19T05:25:11;8.20;;;7.40;;
57463;SDS011;43309;44.418;26.122;2022-08-19T05:27:41;9.20;;;8.20;;
57463;SDS011;43309;44.418;26.122;2022-08-19T05:30:09;10.20;;;8.10;;
57463;SDS011;43309;44.418;26.122;2022-08-19T05:32:37;12.50;;;7.60;;
57463;SDS011;43309;44.418;26.122;2022-08-19T05:35:05;11.00;;;7.80;;
57463;SDS011;43309;44.418;26.122;2022-08-19T05:37:33;12.40;;;7.80;;
57463;SDS011;43309;44.418;26.122;2022-08-19T05:40:00;15.50;;;7.90;;
57463;SDS011;43309;44.418;26.122;2022-08-19T05:42:27;15.00;;;8.30;;
57463;SDS011;43309;44.418;26.122;2022-08-19T05:44:55;12.10;;;8.00;;
57463;SDS011;43309;44.418;26.122;2022-08-19T05:47:23;12.00;;;8.90;;
57463;SDS011;43309;44.418;26.122;2022-08-19T05:49:50;12.40;;;8.60;;
57463;SDS011;43309;44.418;26.122;2022-08-19T05:52:17;15.10;;;8.90;;
57463;SDS011;43309;44.418;26.122;2022-08-19T05:54:45;17.00;;;8.80;;
57463;SDS011;43309;44.418;26.122;2022-08-19T05:57:14;11.80;;;8.10;;
57463;SDS011;43309;44.418;26.122;2022-08-19T05:59:42;10.00;;;8.10;;
57463;SDS011;43309;44.418;26.122;2022-08-19T06:04:40;14.10;;;8.00;;
57463;SDS011;43309;44.418;26.122;2022-08-19T06:07:09;9.50;;;7.30;;
57463;SDS011;43309;44.418;26.122;2022-08-19T06:09:36;8.90;;;7.50;;
57463;SDS011;43309;44.418;26.122;2022-08-19T06:12:04;11.00;;;7.20;;
57463;SDS011;43309;44.418;26.122;2022-08-19T06:14:32;11.60;;;7.50;;
57463;SDS011;43309;44.418;26.122;2022-08-19T06:17:01;7.70;;;6.90;;
57463;SDS011;43309;44.418;26.122;2022-08-19T06:19:29;8.60;;;7.60;;
57463;SDS011;43309;44.418;26.122;2022-08-19T06:21:58;9.90;;;7.40;;
57463;SDS011;43309;44.418;26.122;2022-08-19T06:24:27;11.20;;;7.50;;
57463;SDS011;43309;44.418;26.122;2022-08-19T06:26:56;9.00;;;7.10;;
57463;SDS011;43309;44.418;26.122;2022-08-19T06:29:24;8.30;;;7.20;;
57463;SDS011;43309;44.418;26.122;2022-08-19T06:31:54;11.50;;;7.20;;
57463;SDS011;43309;44.418;26.122;2022-08-19T06:34:22;9.40;;;7.70;;
57463;SDS011;43309;44.418;26.122;2022-08-19T06:36:51;9.80;;;7.50;;
57463;SDS011;43309;44.418;26.122;2022-08-19T06:39:25;11.10;;;7.40;;
57463;SDS011;43309;44.418;26.122;2022-08-19T06:41:55;12.60;;;8.00;;
57463;SDS011;43309;44.418;26.122;2022-08-19T06:44:25;10.80;;;7.30;;
57463;SDS011;43309;44.418;26.122;2022-08-19T06:46:55;9.90;;;7.70;;
57463;SDS011;43309;44.418;26.122;2022-08-19T06:49:23;11.40;;;7.30;;
57463;SDS011;43309;44.418;26.122;2022-08-19T06:51:51;8.40;;;6.90;;
57463;SDS011;43309;44.418;26.122;2022-08-19T06:54:18;10.60;;;6.70;;
57463;SDS011;43309;44.418;26.122;2022-08-19T06:56:46;11.70;;;7.30;;
57463;SDS011;43309;44.418;26.122;2022-08-19T06:59:15;10.60;;;7.20;;
57463;SDS011;43309;44.418;26.122;2022-08-19T07:01:46;8.70;;;7.20;;
57463;SDS011;43309;44.418;26.122;2022-08-19T07:04:16;8.10;;;6.90;;
57463;SDS011;43309;44.418;26.122;2022-08-19T07:06:46;10.40;;;7.10;;
57463;SDS011;43309;44.418;26.122;2022-08-19T07:09:14;8.10;;;6.70;;
57463;SDS011;43309;44.418;26.122;2022-08-19T07:11:46;6.90;;;6.20;;
57463;SDS011;43309;44.418;26.122;2022-08-19T07:14:14;8.80;;;6.80;;
57463;SDS011;43309;44.418;26.122;2022-08-19T07:16:45;10.00;;;6.10;;
57463;SDS011;43309;44.418;26.122;2022-08-19T07:19:14;8.80;;;6.60;;
57463;SDS011;43309;44.418;26.122;2022-08-19T07:21:42;10.40;;;6.70;;
57463;SDS011;43309;44.418;26.122;2022-08-19T07:24:09;12.40;;;6.10;;
57463;SDS011;43309;44.418;26.122;2022-08-19T07:26:40;7.00;;;5.50;;
57463;SDS011;43309;44.418;26.122;2022-08-19T07:29:09;11.10;;;6.20;;
57463;SDS011;43309;44.418;26.122;2022-08-19T07:31:37;9.70;;;5.70;;
57463;SDS011;43309;44.418;26.122;2022-08-19T07:34:05;8.30;;;5.90;;
57463;SDS011;43309;44.418;26.122;2022-08-19T07:36:36;12.40;;;6.60;;
57463;SDS011;43309;44.418;26.122;2022-08-19T07:39:06;12.90;;;7.00;;
57463;SDS011;43309;44.418;26.122;2022-08-19T07:41:35;12.20;;;7.00;;
57463;SDS011;43309;44.418;26.122;2022-08-19T07:44:04;9.10;;;6.50;;
57463;SDS011;43309;44.418;26.122;2022-08-19T07:46:35;9.00;;;6.60;;
57463;SDS011;43309;44.418;26.122;2022-08-19T07:51:32;9.90;;;7.20;;
57463;SDS011;43309;44.418;26.122;2022-08-19T07:54:01;11.30;;;6.70;;
57463;SDS011;43309;44.418;26.122;2022-08-19T07:56:28;9.70;;;6.50;;
57463;SDS011;43309;44.418;26.122;2022-08-19T07:58:55;11.10;;;6.30;;
57463;SDS011;43309;44.418;26.122;2022-08-19T08:01:24;11.50;;;7.00;;
57463;SDS011;43309;44.418;26.122;2022-08-19T08:03:53;9.80;;;6.30;;
57463;SDS011;43309;44.418;26.122;2022-08-19T08:06:39;10.80;;;6.40;;
57463;SDS011;43309;44.418;26.122;2022-08-19T08:09:27;13.50;;;5.90;;
57463;SDS011;43309;44.418;26.122;2022-08-19T08:12:01;8.60;;;6.10;;
57463;SDS011;43309;44.418;26.122;2022-08-19T08:14:33;9.40;;;6.00;;
57463;SDS011;43309;44.418;26.122;2022-08-19T08:17:04;7.70;;;6.20;;
57463;SDS011;43309;44.418;26.122;2022-08-19T08:19:32;11.50;;;5.90;;
57463;SDS011;43309;44.418;26.122;2022-08-19T08:22:00;13.50;;;5.70;;
57463;SDS011;43309;44.418;26.122;2022-08-19T08:24:29;9.80;;;6.60;;
57463;SDS011;43309;44.418;26.122;2022-08-19T08:27:00;9.40;;;6.10;;
57463;SDS011;43309;44.418;26.122;2022-08-19T08:29:28;8.40;;;6.30;;
57463;SDS011;43309;44.418;26.122;2022-08-19T08:31:56;13.00;;;6.20;;
57463;SDS011;43309;44.418;26.122;2022-08-19T08:34:24;9.70;;;6.10;;
57463;SDS011;43309;44.418;26.122;2022-08-19T08:36:51;9.90;;;5.90;;
57463;SDS011;43309;44.418;26.122;2022-08-19T08:39:20;8.60;;;5.80;;
57463;SDS011;43309;44.418;26.122;2022-08-19T08:44:28;7.80;;;6.30;;
57463;SDS011;43309;44.418;26.122;2022-08-19T08:47:06;14.90;;;6.40;;
57463;SDS011;43309;44.418;26.122;2022-08-19T08:52:16;6.60;;;6.00;;
57463;SDS011;43309;44.418;26.122;2022-08-19T08:54:46;14.30;;;6.20;;
57463;SDS011;43309;44.418;26.122;2022-08-19T09:00:56;10.20;;;5.80;;
57463;SDS011;43309;44.418;26.122;2022-08-19T09:03:06;10.10;;;5.90;;
57463;SDS011;43309;44.418;26.122;2022-08-19T09:16:41;10.50;;;6.40;;
57463;SDS011;43309;44.418;26.122;2022-08-19T09:19:08;11.10;;;6.20;;
57463;SDS011;43309;44.418;26.122;2022-08-19T09:21:37;14.60;;;7.00;;
57463;SDS011;43309;44.418;26.122;2022-08-19T09:24:06;10.90;;;6.20;;
57463;SDS011;43309;44.418;26.122;2022-08-19T09:26:33;9.40;;;6.20;;
57463;SDS011;43309;44.418;26.122;2022-08-19T09:29:00;8.30;;;6.00;;
57463;SDS011;43309;44.418;26.122;2022-08-19T09:31:31;7.70;;;6.50;;
57463;SDS011;43309;44.418;26.122;2022-08-19T09:33:59;9.70;;;6.70;;
57463;SDS011;43309;44.418;26.122;2022-08-19T09:36:27;13.50;;;6.50;;
57463;SDS011;43309;44.418;26.122;2022-08-19T09:38:59;7.00;;;5.60;;
57463;SDS011;43309;44.418;26.122;2022-08-19T09:41:27;7.80;;;5.70;;
57463;SDS011;43309;44.418;26.122;2022-08-19T09:43:55;16.20;;;6.70;;
57463;SDS011;43309;44.418;26.122;2022-08-19T09:46:24;16.50;;;7.60;;
57463;SDS011;43309;44.418;26.122;2022-08-19T09:48:53;11.80;;;6.10;;
57463;SDS011;43309;44.418;26.122;2022-08-19T09:51:23;7.80;;;5.90;;
57463;SDS011;43309;44.418;26.122;2022-08-19T09:53:52;9.40;;;5.80;;
57463;SDS011;43309;44.418;26.122;2022-08-19T09:58:50;8.80;;;5.40;;
57463;SDS011;43309;44.418;26.122;2022-08-19T10:01:21;7.00;;;5.40;;
57463;SDS011;43309;44.418;26.122;2022-08-19T10:03:51;10.50;;;6.20;;
57463;SDS011;43309;44.418;26.122;2022-08-19T10:06:25;11.20;;;6.50;;
57463;SDS011;43309;44.418;26.122;2022-08-19T10:08:56;6.10;;;5.60;;
57463;SDS011;43309;44.418;26.122;2022-08-19T10:11:24;6.00;;;5.30;;
57463;SDS011;43309;44.418;26.122;2022-08-19T10:13:51;9.00;;;6.00;;
57463;SDS011;43309;44.418;26.122;2022-08-19T10:16:19;9.60;;;5.70;;
57463;SDS011;43309;44.418;26.122;2022-08-19T10:18:49;9.20;;;5.90;;
57463;SDS011;43309;44.418;26.122;2022-08-19T10:21:27;8.60;;;6.00;;
57463;SDS011;43309;44.418;26.122;2022-08-19T10:23:57;12.00;;;5.60;;
57463;SDS011;43309;44.418;26.122;2022-08-19T10:28:55;8.60;;;6.00;;
57463;SDS011;43309;44.418;26.122;2022-08-19T10:31:24;8.60;;;6.20;;
57463;SDS011;43309;44.418;26.122;2022-08-19T10:33:54;9.60;;;6.50;;
57463;SDS011;43309;44.418;26.122;2022-08-19T10:36:26;7.00;;;5.90;;
57463;SDS011;43309;44.418;26.122;2022-08-19T10:38:59;8.70;;;6.30;;
57463;SDS011;43309;44.418;26.122;2022-08-19T10:41:29;8.50;;;5.60;;
57463;SDS011;43309;44.418;26.122;2022-08-19T10:46:27;11.30;;;5.20;;
57463;SDS011;43309;44.418;26.122;2022-08-19T10:48:55;8.20;;;5.20;;
57463;SDS011;43309;44.418;26.122;2022-08-19T10:51:22;5.40;;;4.90;;
57463;SDS011;43309;44.418;26.122;2022-08-19T10:54:08;8.60;;;5.70;;
57463;SDS011;43309;44.418;26.122;2022-08-19T10:56:35;11.00;;;6.50;;
57463;SDS011;43309;44.418;26.122;2022-08-19T10:59:24;8.10;;;5.30;;
57463;SDS011;43309;44.418;26.122;2022-08-19T11:01:54;7.00;;;5.90;;
57463;SDS011;43309;44.418;26.122;2022-08-19T11:04:26;7.30;;;5.30;;
57463;SDS011;43309;44.418;26.122;2022-08-19T11:06:53;9.90;;;6.00;;
57463;SDS011;43309;44.418;26.122;2022-08-19T11:09:21;6.60;;;5.70;;
57463;SDS011;43309;44.418;26.122;2022-08-19T11:11:53;6.60;;;5.70;;
57463;SDS011;43309;44.418;26.122;2022-08-19T11:14:20;6.20;;;5.40;;
57463;SDS011;43309;44.418;26.122;2022-08-19T11:16:48;9.30;;;5.60;;
57463;SDS011;43309;44.418;26.122;2022-08-19T11:19:16;7.00;;;6.00;;
57463;SDS011;43309;44.418;26.122;2022-08-19T11:21:47;8.40;;;5.80;;
57463;SDS011;43309;44.418;26.122;2022-08-19T11:24:19;5.90;;;5.30;;
57463;SDS011;43309;44.418;26.122;2022-08-19T11:26:48;8.00;;;5.70;;
57463;SDS011;43309;44.418;26.122;2022-08-19T11:29:18;6.90;;;5.80;;
57463;SDS011;43309;44.418;26.122;2022-08-19T11:31:47;9.70;;;5.70;;
57463;SDS011;43309;44.418;26.122;2022-08-19T11:34:17;10.70;;;5.90;;
57463;SDS011;43309;44.418;26.122;2022-08-19T11:36:46;8.30;;;5.70;;
57463;SDS011;43309;44.418;26.122;2022-08-19T11:39:15;10.70;;;6.50;;
57463;SDS011;43309;44.418;26.122;2022-08-19T11:41:44;7.30;;;6.30;;
57463;SDS011;43309;44.418;26.122;2022-08-19T11:44:11;8.70;;;6.40;;
57463;SDS011;43309;44.418;26.122;2022-08-19T11:46:41;9.20;;;6.60;;
57463;SDS011;43309;44.418;26.122;2022-08-19T11:49:12;8.40;;;6.20;;
57463;SDS011;43309;44.418;26.122;2022-08-19T11:51:42;7.30;;;5.50;;
57463;SDS011;43309;44.418;26.122;2022-08-19T11:54:10;7.70;;;6.00;;
57463;SDS011;43309;44.418;26.122;2022-08-19T11:56:39;6.60;;;5.70;;
57463;SDS011;43309;44.418;26.122;2022-08-19T11:59:07;9.50;;;6.00;;
57463;SDS011;43309;44.418;26.122;2022-08-19T12:01:34;6.90;;;5.40;;
57463;SDS011;43309;44.418;26.122;2022-08-19T12:04:02;6.50;;;5.90;;
57463;SDS011;43309;44.418;26.122;2022-08-19T12:06:32;8.00;;;5.40;;
57463;SDS011;43309;44.418;26.122;2022-08-19T12:09:02;11.80;;;5.90;;
57463;SDS011;43309;44.418;26.122;2022-08-19T12:11:32;7.00;;;5.60;;
57463;SDS011;43309;44.418;26.122;2022-08-19T12:13:59;10.00;;;5.70;;
57463;SDS011;43309;44.418;26.122;2022-08-19T12:16:27;9.30;;;5.90;;
57463;SDS011;43309;44.418;26.122;2022-08-19T12:18:55;8.20;;;5.60;;
57463;SDS011;43309;44.418;26.122;2022-08-19T12:21:23;8.90;;;5.50;;
57463;SDS011;43309;44.418;26.122;2022-08-19T12:23:56;12.40;;;6.30;;
57463;SDS011;43309;44.418;26.122;2022-08-19T12:26:25;8.10;;;5.80;;
57463;SDS011;43309;44.418;26.122;2022-08-19T12:28:54;7.20;;;5.80;;
57463;SDS011;43309;44.418;26.122;2022-08-19T12:31:22;7.40;;;5.70;;
57463;SDS011;43309;44.418;26.122;2022-08-19T12:33:49;8.20;;;5.60;;
57463;SDS011;43309;44.418;26.122;2022-08-19T12:36:19;6.80;;;5.50;;
57463;SDS011;43309;44.418;26.122;2022-08-19T12:38:46;9.60;;;5.90;;
57463;SDS011;43309;44.418;26.122;2022-08-19T12:41:14;8.40;;;6.40;;
57463;SDS011;43309;44.418;26.122;2022-08-19T12:43:44;8.00;;;5.70;;
57463;SDS011;43309;44.418;26.122;2022-08-19T12:46:12;7.90;;;5.80;;
57463;SDS011;43309;44.418;26.122;2022-08-19T12:48:39;7.80;;;5.80;;
57463;SDS011;43309;44.418;26.122;2022-08-19T12:51:12;7.60;;;5.70;;
57463;SDS011;43309;44.418;26.122;2022-08-19T12:53:41;10.20;;;5.90;;
57463;SDS011;43309;44.418;26.122;2022-08-19T12:56:09;7.30;;;5.60;;
57463;SDS011;43309;44.418;26.122;2022-08-19T12:58:37;11.10;;;5.40;;
57463;SDS011;43309;44.418;26.122;2022-08-19T13:01:13;8.20;;;5.50;;
57463;SDS011;43309;44.418;26.122;2022-08-19T13:03:44;9.50;;;5.60;;
57463;SDS011;43309;44.418;26.122;2022-08-19T13:06:12;9.90;;;5.70;;
57463;SDS011;43309;44.418;26.122;2022-08-19T13:08:39;9.80;;;5.50;;
57463;SDS011;43309;44.418;26.122;2022-08-19T13:11:08;7.40;;;5.20;;
57463;SDS011;43309;44.418;26.122;2022-08-19T13:13:39;9.50;;;4.90;;
57463;SDS011;43309;44.418;26.122;2022-08-19T13:16:09;10.10;;;7.40;;
57463;SDS011;43309;44.418;26.122;2022-08-19T13:18:38;8.40;;;5.20;;
57463;SDS011;43309;44.418;26.122;2022-08-19T13:21:07;8.60;;;5.80;;
57463;SDS011;43309;44.418;26.122;2022-08-19T13:23:35;9.70;;;5.90;;
57463;SDS011;43309;44.418;26.122;2022-08-19T13:26:04;9.90;;;5.10;;
57463;SDS011;43309;44.418;26.122;2022-08-19T13:28:33;8.80;;;5.30;;
57463;SDS011;43309;44.418;26.122;2022-08-19T13:31:21;8.10;;;5.20;;
57463;SDS011;43309;44.418;26.122;2022-08-19T13:34:08;6.20;;;5.60;;
57463;SDS011;43309;44.418;26.122;2022-08-19T13:36:35;9.50;;;4.90;;
57463;SDS011;43309;44.418;26.122;2022-08-19T13:39:04;7.60;;;5.00;;
57463;SDS011;43309;44.418;26.122;2022-08-19T13:41:32;11.10;;;5.10;;
57463;SDS011;43309;44.418;26.122;2022-08-19T13:44:00;7.50;;;5.20;;
57463;SDS011;43309;44.418;26.122;2022-08-19T13:46:28;6.20;;;5.00;;
57463;SDS011;43309;44.418;26.122;2022-08-19T13:48:56;6.60;;;4.90;;
57463;SDS011;43309;44.418;26.122;2022-08-19T13:51:24;9.50;;;5.00;;
57463;SDS011;43309;44.418;26.122;2022-08-19T13:53:51;9.50;;;5.40;;
57463;SDS011;43309;44.418;26.122;2022-08-19T13:56:18;10.00;;;5.20;;
57463;SDS011;43309;44.418;26.122;2022-08-19T13:58:46;6.50;;;4.90;;
57463;SDS011;43309;44.418;26.122;2022-08-19T14:01:18;9.00;;;5.00;;
57463;SDS011;43309;44.418;26.122;2022-08-19T14:03:47;6.40;;;4.90;;
57463;SDS011;43309;44.418;26.122;2022-08-19T14:06:14;9.90;;;5.40;;
57463;SDS011;43309;44.418;26.122;2022-08-19T14:08:41;9.20;;;5.10;;
57463;SDS011;43309;44.418;26.122;2022-08-19T14:11:08;12.20;;;4.90;;
57463;SDS011;43309;44.418;26.122;2022-08-19T14:13:36;10.10;;;5.10;;
57463;SDS011;43309;44.418;26.122;2022-08-19T14:16:08;8.40;;;5.00;;
57463;SDS011;43309;44.418;26.122;2022-08-19T14:18:36;8.90;;;5.00;;
57463;SDS011;43309;44.418;26.122;2022-08-19T14:21:04;10.70;;;5.00;;
57463;SDS011;43309;44.418;26.122;2022-08-19T14:23:32;6.70;;;5.00;;
57463;SDS011;43309;44.418;26.122;2022-08-19T14:26:10;10.00;;;4.80;;
57463;SDS011;43309;44.418;26.122;2022-08-19T14:28:40;5.70;;;5.00;;
57463;SDS011;43309;44.418;26.122;2022-08-19T14:31:09;6.80;;;4.40;;
57463;SDS011;43309;44.418;26.122;2022-08-19T14:33:38;11.90;;;4.90;;
57463;SDS011;43309;44.418;26.122;2022-08-19T14:36:05;8.70;;;4.70;;
57463;SDS011;43309;44.418;26.122;2022-08-19T14:38:32;8.30;;;5.10;;
57463;SDS011;43309;44.418;26.122;2022-08-19T14:44:00;12.70;;;4.60;;
57463;SDS011;43309;44.418;26.122;2022-08-19T14:46:28;6.40;;;4.70;;
57463;SDS011;43309;44.418;26.122;2022-08-19T14:48:55;9.40;;;4.60;;
57463;SDS011;43309;44.418;26.122;2022-08-19T14:51:23;5.80;;;4.30;;
57463;SDS011;43309;44.418;26.122;2022-08-19T14:53:51;8.20;;;4.40;;
57463;SDS011;43309;44.418;26.122;2022-08-19T14:56:19;5.90;;;4.10;;
57463;SDS011;43309;44.418;26.122;2022-08-19T14:58:49;6.40;;;4.10;;
57463;SDS011;43309;44.418;26.122;2022-08-19T15:01:19;7.30;;;4.00;;
57463;SDS011;43309;44.418;26.122;2022-08-19T15:03:49;6.80;;;3.90;;
57463;SDS011;43309;44.418;26.122;2022-08-19T15:06:20;8.80;;;4.00;;
57463;SDS011;43309;44.418;26.122;2022-08-19T15:08:48;8.50;;;4.30;;
57463;SDS011;43309;44.418;26.122;2022-08-19T15:11:18;8.90;;;3.90;;
57463;SDS011;43309;44.418;26.122;2022-08-19T15:13:48;8.50;;;4.00;;
57463;SDS011;43309;44.418;26.122;2022-08-19T15:16:16;9.80;;;4.10;;
57463;SDS011;43309;44.418;26.122;2022-08-19T15:18:44;8.00;;;4.20;;